sensor_id;sensor_type;location;lat;lon;timestamp;pressure;altitude;pressure_sealevel;temperature;humidity
72423;BME280;60413;55.658;37.498;2022-09-30T00:01:48;98678.81;;;9.83;100.00
72423;BME280;60413;55.658;37.498;2022-09-30T00:04:26;98664.13;;;9.66;100.00
72423;BME280;60413;55.658;37.498;2022-09-30T00:06:53;98684.31;;;9.82;100.00
72423;BME280;60413;55.658;37.498;2022-09-30T00:09:19;98687.34;;;9.74;100.00
72423;BME280;60413;55.658;37.498;2022-09-30T00:11:46;98674.53;;;9.60;100.00
72423;BME280;60413;55.658;37.498;2022-09-30T00:14:22;98681.28;;;9.51;100.00
72423;BME280;60413;55.658;37.498;2022-09-30T00:16:48;98728.81;;;9.83;100.00
72423;BME280;60413;55.658;37.498;2022-09-30T00:19:14;98681.28;;;9.51;100.00
72423;BME280;60413;55.658;37.498;2022-09-30T00:21:40;98689.66;;;9.48;100.00
72423;BME280;60413;55.658;37.498;2022-09-30T00:24:07;98729.22;;;9.75;100.00
72423;BME280;60413;55.658;37.498;2022-09-30T00:26:33;98711.56;;;9.54;100.00
72423;BME280;60413;55.658;37.498;2022-09-30T00:29:00;98677.00;;;9.28;100.00
72423;BME280;60413;55.658;37.498;2022-09-30T00:31:31;98727.44;;;9.59;100.00
72423;BME280;60413;55.658;37.498;2022-09-30T00:33:58;98741.84;;;9.73;100.00
72423;BME280;60413;55.658;37.498;2022-09-30T00:39:14;98746.41;;;9.61;100.00
72423;BME280;60413;55.658;37.498;2022-09-30T00:41:41;98751.50;;;9.51;100.00
72423;BME280;60413;55.658;37.498;2022-09-30T00:49:54;98725.69;;;9.31;100.00
72423;BME280;60413;55.658;37.498;2022-09-30T00:52:21;98747.19;;;9.44;100.00
72423;BME280;60413;55.658;37.498;2022-09-30T00:54:47;98737.06;;;9.36;100.00
72423;BME280;60413;55.658;37.498;2022-09-30T00:57:13;98748.16;;;9.38;100.00
72423;BME280;60413;55.658;37.498;2022-09-30T00:59:43;98755.09;;;9.44;100.00
72423;BME280;60413;55.658;37.498;2022-09-30T01:02:12;98726.00;;;9.34;100.00
72423;BME280;60413;55.658;37.498;2022-09-30T01:04:40;98744.19;;;9.36;100.00
72423;BME280;60413;55.658;37.498;2022-09-30T01:07:08;98753.00;;;9.46;100.00
72423;BME280;60413;55.658;37.498;2022-09-30T01:09:36;98745.34;;;9.45;100.00
72423;BME280;60413;55.658;37.498;2022-09-30T01:12:13;98744.72;;;9.55;100.00
72423;BME280;60413;55.658;37.498;2022-09-30T01:14:41;98743.38;;;9.52;100.00
72423;BME280;60413;55.658;37.498;2022-09-30T01:31:26;98736.59;;;9.39;100.00
72423;BME280;60413;55.658;37.498;2022-09-30T01:39:08;98758.44;;;9.23;100.00
72423;BME280;60413;55.658;37.498;2022-09-30T01:41:44;98749.81;;;9.11;100.00
72423;BME280;60413;55.658;37.498;2022-09-30T01:44:22;98748.91;;;9.05;100.00
72423;BME280;60413;55.658;37.498;2022-09-30T02:00:05;98753.56;;;8.69;100.00
72423;BME280;60413;55.658;37.498;2022-09-30T02:05:29;98756.66;;;8.66;100.00
72423;BME280;60413;55.658;37.498;2022-09-30T02:10:58;98758.94;;;8.62;100.00
72423;BME280;60413;55.658;37.498;2022-09-30T02:13:33;98749.03;;;8.52;100.00
72423;BME280;60413;55.658;37.498;2022-09-30T02:16:05;98735.09;;;8.40;100.00
72423;BME280;60413;55.658;37.498;2022-09-30T02:18:44;98720.84;;;8.36;100.00
72423;BME280;60413;55.658;37.498;2022-09-30T02:21:15;98756.13;;;8.52;100.00
72423;BME280;60413;55.658;37.498;2022-09-30T02:23:44;98757.84;;;8.46;100.00
72423;BME280;60413;55.658;37.498;2022-09-30T02:26:13;98755.22;;;8.46;100.00
72423;BME280;60413;55.658;37.498;2022-09-30T02:28:45;98744.59;;;8.41;100.00
72423;BME280;60413;55.658;37.498;2022-09-30T02:31:14;98723.06;;;8.27;100.00
72423;BME280;60413;55.658;37.498;2022-09-30T02:33:57;98733.44;;;8.34;100.00
72423;BME280;60413;55.658;37.498;2022-09-30T02:39:42;98723.94;;;8.33;100.00
72423;BME280;60413;55.658;37.498;2022-09-30T02:42:16;98748.94;;;8.47;100.00
72423;BME280;60413;55.658;37.498;2022-09-30T02:44:47;98743.56;;;8.54;100.00
72423;BME280;60413;55.658;37.498;2022-09-30T02:55:46;98762.56;;;8.73;100.00
72423;BME280;60413;55.658;37.498;2022-09-30T02:58:18;98762.09;;;8.76;100.00
72423;BME280;60413;55.658;37.498;2022-09-30T03:00:47;98751.44;;;8.83;100.00
72423;BME280;60413;55.658;37.498;2022-09-30T03:05:39;98755.66;;;8.84;100.00
72423;BME280;60413;55.658;37.498;2022-09-30T03:08:05;98763.63;;;8.89;100.00
72423;BME280;60413;55.658;37.498;2022-09-30T03:10:32;98745.06;;;8.79;100.00
72423;BME280;60413;55.658;37.498;2022-09-30T03:22:16;98754.84;;;8.83;100.00
72423;BME280;60413;55.658;37.498;2022-09-30T03:25:40;98759.09;;;8.84;100.00
72423;BME280;60413;55.658;37.498;2022-09-30T03:30:20;98753.59;;;8.86;100.00
72423;BME280;60413;55.658;37.498;2022-09-30T03:33:07;98761.56;;;8.91;100.00
72423;BME280;60413;55.658;37.498;2022-09-30T03:41:32;98753.16;;;9.06;100.00
72423;BME280;60413;55.658;37.498;2022-09-30T03:44:28;98758.59;;;9.16;100.00
72423;BME280;60413;55.658;37.498;2022-09-30T03:46:59;98764.41;;;9.18;100.00
72423;BME280;60413;55.658;37.498;2022-09-30T03:49:38;98753.47;;;9.09;100.00
72423;BME280;60413;55.658;37.498;2022-09-30T03:52:06;98755.09;;;9.11;100.00
72423;BME280;60413;55.658;37.498;2022-09-30T03:54:33;98753.16;;;9.06;100.00
72423;BME280;60413;55.658;37.498;2022-09-30T03:57:03;98739.59;;;8.97;100.00
72423;BME280;60413;55.658;37.498;2022-09-30T03:59:29;98747.13;;;9.05;100.00
72423;BME280;60413;55.658;37.498;2022-09-30T04:01:56;98754.59;;;9.14;100.00
72423;BME280;60413;55.658;37.498;2022-09-30T04:04:24;98741.59;;;9.07;100.00
72423;BME280;60413;55.658;37.498;2022-09-30T04:06:50;98755.31;;;9.26;100.00
72423;BME280;60413;55.658;37.498;2022-09-30T04:09:16;98764.63;;;9.34;100.00
72423;BME280;60413;55.658;37.498;2022-09-30T04:11:42;98760.75;;;9.53;100.00
72423;BME280;60413;55.658;37.498;2022-09-30T04:14:08;98764.41;;;9.69;100.00
72423;BME280;60413;55.658;37.498;2022-09-30T04:16:34;98775.88;;;9.80;100.00
72423;BME280;60413;55.658;37.498;2022-09-30T04:19:00;98772.53;;;9.85;100.00
72423;BME280;60413;55.658;37.498;2022-09-30T04:21:26;98767.50;;;9.83;100.00
72423;BME280;60413;55.658;37.498;2022-09-30T04:23:55;98776.81;;;9.74;100.00
72423;BME280;60413;55.658;37.498;2022-09-30T04:26:21;98766.81;;;9.71;100.00
72423;BME280;60413;55.658;37.498;2022-09-30T04:28:47;98765.84;;;9.60;100.00
72423;BME280;60413;55.658;37.498;2022-09-30T04:31:13;98758.19;;;9.58;100.00
72423;BME280;60413;55.658;37.498;2022-09-30T04:33:42;98780.59;;;9.78;100.00
72423;BME280;60413;55.658;37.498;2022-09-30T04:36:09;98777.00;;;9.84;100.00
72423;BME280;60413;55.658;37.498;2022-09-30T04:38:35;98770.91;;;9.83;100.00
72423;BME280;60413;55.658;37.498;2022-09-30T04:41:03;98714.09;;;9.49;100.00
72423;BME280;60413;55.658;37.498;2022-09-30T04:43:30;98706.72;;;9.45;100.00
72423;BME280;60413;55.658;37.498;2022-09-30T04:45:56;98724.22;;;9.57;100.00
72423;BME280;60413;55.658;37.498;2022-09-30T04:48:23;98743.91;;;9.71;100.00
72423;BME280;60413;55.658;37.498;2022-09-30T04:50:49;98743.75;;;9.78;100.00
72423;BME280;60413;55.658;37.498;2022-09-30T04:53:18;98721.31;;;9.75;100.00
72423;BME280;60413;55.658;37.498;2022-09-30T04:55:44;98722.38;;;9.74;100.00
72423;BME280;60413;55.658;37.498;2022-09-30T04:58:11;98765.72;;;10.06;100.00
72423;BME280;60413;55.658;37.498;2022-09-30T05:00:37;98759.47;;;10.12;100.00
72423;BME280;60413;55.658;37.498;2022-09-30T05:03:04;98800.72;;;10.45;100.00
72423;BME280;60413;55.658;37.498;2022-09-30T05:05:31;98754.25;;;10.17;100.00
72423;BME280;60413;55.658;37.498;2022-09-30T05:08:03;98761.91;;;10.18;100.00
72423;BME280;60413;55.658;37.498;2022-09-30T05:10:29;98785.06;;;10.16;100.00
72423;BME280;60413;55.658;37.498;2022-09-30T05:12:56;98785.97;;;10.05;100.00
72423;BME280;60413;55.658;37.498;2022-09-30T05:15:25;98764.69;;;9.90;100.00
72423;BME280;60413;55.658;37.498;2022-09-30T05:17:52;98779.28;;;9.97;100.00
72423;BME280;60413;55.658;37.498;2022-09-30T05:20:18;98740.81;;;9.74;100.00
72423;BME280;60413;55.658;37.498;2022-09-30T05:22:44;98720.56;;;9.58;100.00
72423;BME280;60413;55.658;37.498;2022-09-30T05:25:10;98730.84;;;9.59;100.00
72423;BME280;60413;55.658;37.498;2022-09-30T05:27:36;98744.59;;;9.83;100.00
72423;BME280;60413;55.658;37.498;2022-09-30T05:30:03;98738.66;;;9.71;100.00
72423;BME280;60413;55.658;37.498;2022-09-30T05:32:29;98779.66;;;10.06;100.00
72423;BME280;60413;55.658;37.498;2022-09-30T05:34:55;98777.34;;;10.10;100.00
72423;BME280;60413;55.658;37.498;2022-09-30T05:37:21;98753.94;;;9.91;100.00
72423;BME280;60413;55.658;37.498;2022-09-30T05:39:47;98796.03;;;10.30;100.00
72423;BME280;60413;55.658;37.498;2022-09-30T05:42:13;98757.47;;;10.19;100.00
72423;BME280;60413;55.658;37.498;2022-09-30T05:44:39;98765.38;;;10.19;100.00
72423;BME280;60413;55.658;37.498;2022-09-30T05:47:05;98748.97;;;10.17;100.00
72423;BME280;60413;55.658;37.498;2022-09-30T05:49:31;98765.03;;;10.32;100.00
72423;BME280;60413;55.658;37.498;2022-09-30T05:51:59;98751.50;;;10.29;100.00
72423;BME280;60413;55.658;37.498;2022-09-30T05:54:25;98759.97;;;10.31;100.00
72423;BME280;60413;55.658;37.498;2022-09-30T05:56:51;98733.06;;;10.29;100.00
72423;BME280;60413;55.658;37.498;2022-09-30T05:59:17;98754.38;;;10.44;100.00
72423;BME280;60413;55.658;37.498;2022-09-30T06:01:44;98763.31;;;10.43;100.00
72423;BME280;60413;55.658;37.498;2022-09-30T06:04:10;98765.25;;;10.53;100.00
72423;BME280;60413;55.658;37.498;2022-09-30T06:06:36;98758.75;;;10.61;100.00
72423;BME280;60413;55.658;37.498;2022-09-30T06:09:03;98757.81;;;10.72;100.00
72423;BME280;60413;55.658;37.498;2022-09-30T06:11:29;98765.81;;;10.82;100.00
72423;BME280;60413;55.658;37.498;2022-09-30T06:13:56;98758.88;;;10.71;100.00
72423;BME280;60413;55.658;37.498;2022-09-30T06:16:22;98739.38;;;10.72;100.00
72423;BME280;60413;55.658;37.498;2022-09-30T06:18:48;98728.44;;;10.85;100.00
72423;BME280;60413;55.658;37.498;2022-09-30T06:21:15;98787.19;;;11.40;100.00
72423;BME280;60413;55.658;37.498;2022-09-30T06:23:42;98746.75;;;11.29;100.00
72423;BME280;60413;55.658;37.498;2022-09-30T06:26:09;98740.06;;;11.17;100.00
72423;BME280;60413;55.658;37.498;2022-09-30T06:28:36;98794.53;;;11.65;100.00
72423;BME280;60413;55.658;37.498;2022-09-30T06:31:03;98754.81;;;11.50;100.00
72423;BME280;60413;55.658;37.498;2022-09-30T06:33:30;98774.03;;;11.78;100.00
72423;BME280;60413;55.658;37.498;2022-09-30T06:35:57;98742.78;;;11.64;100.00
72423;BME280;60413;55.658;37.498;2022-09-30T06:38:23;98732.22;;;11.64;100.00
72423;BME280;60413;55.658;37.498;2022-09-30T06:40:49;98767.31;;;12.02;100.00
72423;BME280;60413;55.658;37.498;2022-09-30T06:43:18;98781.38;;;12.08;100.00
72423;BME280;60413;55.658;37.498;2022-09-30T06:45:47;98775.50;;;12.01;100.00
72423;BME280;60413;55.658;37.498;2022-09-30T06:48:16;98786.75;;;12.29;100.00
72423;BME280;60413;55.658;37.498;2022-09-30T06:50:43;98741.81;;;12.23;100.00
72423;BME280;60413;55.658;37.498;2022-09-30T06:53:11;98795.69;;;13.06;100.00
72423;BME280;60413;55.658;37.498;2022-09-30T06:55:37;98773.50;;;13.07;100.00
72423;BME280;60413;55.658;37.498;2022-09-30T06:58:06;98767.16;;;13.13;100.00
72423;BME280;60413;55.658;37.498;2022-09-30T07:00:34;98784.94;;;13.44;100.00
72423;BME280;60413;55.658;37.498;2022-09-30T07:03:01;98773.53;;;13.69;100.00
72423;BME280;60413;55.658;37.498;2022-09-30T07:05:28;98772.41;;;14.06;100.00
72423;BME280;60413;55.658;37.498;2022-09-30T07:07:53;98771.28;;;14.22;100.00
72423;BME280;60413;55.658;37.498;2022-09-30T07:10:20;98771.78;;;14.30;100.00
72423;BME280;60413;55.658;37.498;2022-09-30T07:12:50;98782.06;;;14.41;100.00
72423;BME280;60413;55.658;37.498;2022-09-30T07:15:18;98795.69;;;14.85;100.00
72423;BME280;60413;55.658;37.498;2022-09-30T07:17:53;98761.13;;;14.95;100.00
72423;BME280;60413;55.658;37.498;2022-09-30T07:20:22;98756.50;;;15.80;100.00
72423;BME280;60413;55.658;37.498;2022-09-30T07:22:48;98779.47;;;16.19;100.00
72423;BME280;60413;55.658;37.498;2022-09-30T07:25:15;98798.38;;;16.17;100.00
72423;BME280;60413;55.658;37.498;2022-09-30T07:27:42;98794.81;;;16.03;100.00
72423;BME280;60413;55.658;37.498;2022-09-30T07:30:10;98781.88;;;15.62;100.00
72423;BME280;60413;55.658;37.498;2022-09-30T07:32:36;98779.44;;;14.96;100.00
72423;BME280;60413;55.658;37.498;2022-09-30T07:35:02;98803.38;;;14.86;100.00
72423;BME280;60413;55.658;37.498;2022-09-30T07:37:28;98768.75;;;14.67;100.00
72423;BME280;60413;55.658;37.498;2022-09-30T07:40:04;98742.31;;;14.41;100.00
72423;BME280;60413;55.658;37.498;2022-09-30T07:42:31;98745.94;;;14.66;100.00
72423;BME280;60413;55.658;37.498;2022-09-30T07:44:57;98767.22;;;15.35;100.00
72423;BME280;60413;55.658;37.498;2022-09-30T07:47:25;98754.34;;;15.18;100.00
72423;BME280;60413;55.658;37.498;2022-09-30T07:49:51;98770.31;;;15.47;100.00
72423;BME280;60413;55.658;37.498;2022-09-30T07:52:18;98791.63;;;16.25;100.00
72423;BME280;60413;55.658;37.498;2022-09-30T07:54:44;98781.84;;;16.44;100.00
72423;BME280;60413;55.658;37.498;2022-09-30T07:57:11;98765.94;;;16.39;100.00
72423;BME280;60413;55.658;37.498;2022-09-30T07:59:38;98776.53;;;16.20;100.00
72423;BME280;60413;55.658;37.498;2022-09-30T08:02:06;98789.09;;;15.90;100.00
72423;BME280;60413;55.658;37.498;2022-09-30T08:04:33;98789.66;;;15.53;100.00
72423;BME280;60413;55.658;37.498;2022-09-30T08:07:02;98787.75;;;15.59;100.00
72423;BME280;60413;55.658;37.498;2022-09-30T08:09:29;98770.78;;;15.54;100.00
72423;BME280;60413;55.658;37.498;2022-09-30T08:11:56;98807.28;;;15.44;100.00
72423;BME280;60413;55.658;37.498;2022-09-30T08:14:25;98746.09;;;14.80;100.00
72423;BME280;60413;55.658;37.498;2022-09-30T08:16:52;98748.19;;;14.88;100.00
72423;BME280;60413;55.658;37.498;2022-09-30T08:19:21;98751.06;;;15.31;100.00
72423;BME280;60413;55.658;37.498;2022-09-30T08:21:49;98745.09;;;15.15;100.00
72423;BME280;60413;55.658;37.498;2022-09-30T08:24:15;98746.03;;;15.30;100.00
72423;BME280;60413;55.658;37.498;2022-09-30T08:26:42;98772.25;;;15.36;100.00
72423;BME280;60413;55.658;37.498;2022-09-30T08:29:08;98771.31;;;15.22;100.00
72423;BME280;60413;55.658;37.498;2022-09-30T08:31:39;98759.59;;;14.89;100.00
72423;BME280;60413;55.658;37.498;2022-09-30T08:34:05;98780.09;;;14.78;100.00
72423;BME280;60413;55.658;37.498;2022-09-30T08:36:32;98772.25;;;14.52;100.00
72423;BME280;60413;55.658;37.498;2022-09-30T08:38:57;98741.66;;;14.10;100.00
72423;BME280;60413;55.658;37.498;2022-09-30T08:52:35;98766.22;;;14.31;100.00
72423;BME280;60413;55.658;37.498;2022-09-30T08:55:05;98745.84;;;14.16;100.00
72423;BME280;60413;55.658;37.498;2022-09-30T08:57:38;98768.03;;;14.41;100.00
72423;BME280;60413;55.658;37.498;2022-09-30T09:00:07;98756.47;;;14.76;100.00
72423;BME280;60413;55.658;37.498;2022-09-30T09:02:51;98739.47;;;15.51;100.00
72423;BME280;60413;55.658;37.498;2022-09-30T09:05:45;98729.97;;;15.45;100.00
72423;BME280;60413;55.658;37.498;2022-09-30T09:27:17;98720.59;;;14.39;100.00
72423;BME280;60413;55.658;37.498;2022-09-30T09:30:11;98766.75;;;14.88;100.00
72423;BME280;60413;55.658;37.498;2022-09-30T09:33:38;98787.16;;;14.93;100.00
72423;BME280;60413;55.658;37.498;2022-09-30T09:39:18;98735.88;;;14.63;100.00
72423;BME280;60413;55.658;37.498;2022-09-30T09:42:05;98769.09;;;14.95;100.00
72423;BME280;60413;55.658;37.498;2022-09-30T09:44:55;98754.22;;;14.99;100.00
72423;BME280;60413;55.658;37.498;2022-09-30T09:47:24;98749.94;;;15.03;100.00
72423;BME280;60413;55.658;37.498;2022-09-30T09:49:59;98743.22;;;15.16;100.00
72423;BME280;60413;55.658;37.498;2022-09-30T09:52:36;98792.75;;;15.65;100.00
72423;BME280;60413;55.658;37.498;2022-09-30T09:55:05;98769.63;;;15.95;100.00
72423;BME280;60413;55.658;37.498;2022-09-30T09:57:31;98771.06;;;15.87;100.00
72423;BME280;60413;55.658;37.498;2022-09-30T10:00:22;98729.00;;;15.65;100.00
72423;BME280;60413;55.658;37.498;2022-09-30T10:03:21;98756.00;;;15.72;100.00
72423;BME280;60413;55.658;37.498;2022-09-30T10:06:09;98761.44;;;15.91;100.00
72423;BME280;60413;55.658;37.498;2022-09-30T10:08:54;98733.66;;;16.03;100.00
72423;BME280;60413;55.658;37.498;2022-09-30T10:11:25;98794.66;;;16.80;100.00
72423;BME280;60413;55.658;37.498;2022-09-30T10:13:57;98769.03;;;16.27;100.00
72423;BME280;60413;55.658;37.498;2022-09-30T10:16:35;98767.31;;;16.13;100.00
72423;BME280;60413;55.658;37.498;2022-09-30T10:19:15;98729.59;;;16.10;100.00
72423;BME280;60413;55.658;37.498;2022-09-30T10:21:47;98729.25;;;15.93;100.00
72423;BME280;60413;55.658;37.498;2022-09-30T10:24:29;98762.22;;;16.16;100.00
72423;BME280;60413;55.658;37.498;2022-09-30T10:26:56;98726.97;;;16.05;100.00
72423;BME280;60413;55.658;37.498;2022-09-30T10:32:06;98729.25;;;16.17;100.00
72423;BME280;60413;55.658;37.498;2022-09-30T10:34:39;98751.06;;;16.38;100.00
72423;BME280;60413;55.658;37.498;2022-09-30T10:37:21;98764.59;;;16.18;100.00
72423;BME280;60413;55.658;37.498;2022-09-30T10:39:59;98760.97;;;15.84;100.00
72423;BME280;60413;55.658;37.498;2022-09-30T10:42:29;98767.78;;;15.96;100.00
72423;BME280;60413;55.658;37.498;2022-09-30T10:47:46;98757.16;;;15.96;100.00
72423;BME280;60413;55.658;37.498;2022-09-30T10:50:18;98773.38;;;16.42;100.00
72423;BME280;60413;55.658;37.498;2022-09-30T10:52:57;98751.81;;;16.63;100.00
72423;BME280;60413;55.658;37.498;2022-09-30T10:55:25;98780.59;;;17.18;100.00
72423;BME280;60413;55.658;37.498;2022-09-30T10:57:54;98729.81;;;16.95;100.00
72423;BME280;60413;55.658;37.498;2022-09-30T11:00:26;98764.22;;;17.11;100.00
72423;BME280;60413;55.658;37.498;2022-09-30T11:03:00;98762.03;;;16.94;100.00
72423;BME280;60413;55.658;37.498;2022-09-30T11:05:35;98740.47;;;16.76;100.00
72423;BME280;60413;55.658;37.498;2022-09-30T11:08:08;98767.94;;;17.10;100.00
72423;BME280;60413;55.658;37.498;2022-09-30T11:11:10;98762.31;;;16.73;100.00
72423;BME280;60413;55.658;37.498;2022-09-30T11:13:55;98721.44;;;16.26;100.00
72423;BME280;60413;55.658;37.498;2022-09-30T11:16:50;98771.28;;;16.39;100.00
72423;BME280;60413;55.658;37.498;2022-09-30T11:24:52;98718.06;;;16.39;100.00
72423;BME280;60413;55.658;37.498;2022-09-30T11:27:33;98730.22;;;16.83;100.00
72423;BME280;60413;55.658;37.498;2022-09-30T11:41:03;98773.72;;;16.98;100.00
72423;BME280;60413;55.658;37.498;2022-09-30T12:00:18;98794.66;;;17.04;100.00
72423;BME280;60413;55.658;37.498;2022-09-30T12:02:50;98765.16;;;17.01;100.00
72423;BME280;60413;55.658;37.498;2022-09-30T12:05:43;98784.19;;;17.27;100.00
72423;BME280;60413;55.658;37.498;2022-09-30T12:10:47;98748.78;;;17.27;100.00
72423;BME280;60413;55.658;37.498;2022-09-30T12:13:22;98795.03;;;17.64;100.00
72423;BME280;60413;55.658;37.498;2022-09-30T12:15:50;98797.03;;;17.72;100.00
72423;BME280;60413;55.658;37.498;2022-09-30T12:18:41;98760.56;;;17.39;100.00
72423;BME280;60413;55.658;37.498;2022-09-30T12:21:19;98772.88;;;17.35;100.00
72423;BME280;60413;55.658;37.498;2022-09-30T12:23:54;98779.31;;;17.15;100.00
72423;BME280;60413;55.658;37.498;2022-09-30T12:26:23;98783.44;;;17.08;100.00
72423;BME280;60413;55.658;37.498;2022-09-30T12:29:06;98780.09;;;17.16;100.00
72423;BME280;60413;55.658;37.498;2022-09-30T12:32:22;98805.13;;;17.34;100.00
72423;BME280;60413;55.658;37.498;2022-09-30T12:41:22;98801.34;;;17.54;100.00
72423;BME280;60413;55.658;37.498;2022-09-30T12:47:21;98756.19;;;17.30;100.00
72423;BME280;60413;55.658;37.498;2022-09-30T12:49:56;98768.19;;;17.46;100.00
72423;BME280;60413;55.658;37.498;2022-09-30T12:52:35;98787.13;;;17.58;100.00
72423;BME280;60413;55.658;37.498;2022-09-30T12:55:30;98787.91;;;17.45;100.00
72423;BME280;60413;55.658;37.498;2022-09-30T12:58:03;98780.53;;;17.23;100.00
72423;BME280;60413;55.658;37.498;2022-09-30T13:00:32;98785.84;;;17.23;100.00
72423;BME280;60413;55.658;37.498;2022-09-30T13:03:16;98765.22;;;16.96;100.00
72423;BME280;60413;55.658;37.498;2022-09-30T13:06:00;98756.84;;;16.83;100.00
72423;BME280;60413;55.658;37.498;2022-09-30T13:08:40;98746.34;;;16.73;100.00
72423;BME280;60413;55.658;37.498;2022-09-30T13:11:42;98810.78;;;16.94;100.00
72423;BME280;60413;55.658;37.498;2022-09-30T13:14:17;98816.91;;;16.71;100.00
72423;BME280;60413;55.658;37.498;2022-09-30T13:30:02;98772.84;;;15.92;100.00
72423;BME280;60413;55.658;37.498;2022-09-30T13:40:57;98784.50;;;15.96;100.00
72423;BME280;60413;55.658;37.498;2022-09-30T13:43:31;98832.91;;;16.22;100.00
72423;BME280;60413;55.658;37.498;2022-09-30T13:46:07;98824.56;;;16.05;100.00
72423;BME280;60413;55.658;37.498;2022-09-30T13:48:39;98814.13;;;15.84;100.00
72423;BME280;60413;55.658;37.498;2022-09-30T13:51:11;98834.69;;;16.03;100.00
72423;BME280;60413;55.658;37.498;2022-09-30T13:53:52;98814.47;;;15.72;100.00
72423;BME280;60413;55.658;37.498;2022-09-30T13:56:26;98797.56;;;15.58;100.00
72423;BME280;60413;55.658;37.498;2022-09-30T14:04:54;98840.31;;;15.96;100.00
72423;BME280;60413;55.658;37.498;2022-09-30T14:10:22;98849.69;;;16.18;100.00
72423;BME280;60413;55.658;37.498;2022-09-30T14:16:34;98850.69;;;15.98;100.00
72423;BME280;60413;55.658;37.498;2022-09-30T14:21:56;98852.38;;;15.83;100.00
72423;BME280;60413;55.658;37.498;2022-09-30T14:24:26;98837.41;;;15.58;100.00
72423;BME280;60413;55.658;37.498;2022-09-30T14:32:15;98855.94;;;15.34;100.00
72423;BME280;60413;55.658;37.498;2022-09-30T14:34:43;98872.66;;;15.34;100.00
72423;BME280;60413;55.658;37.498;2022-09-30T14:37:26;98854.13;;;15.24;100.00
72423;BME280;60413;55.658;37.498;2022-09-30T14:39:54;98854.94;;;15.19;100.00
72423;BME280;60413;55.658;37.498;2022-09-30T14:42:30;98865.56;;;15.19;100.00
72423;BME280;60413;55.658;37.498;2022-09-30T14:44:59;98870.09;;;15.19;100.00
72423;BME280;60413;55.658;37.498;2022-09-30T14:47:35;98867.22;;;15.10;100.00
72423;BME280;60413;55.658;37.498;2022-09-30T14:50:13;98873.31;;;15.11;100.00
72423;BME280;60413;55.658;37.498;2022-09-30T14:52:44;98830.47;;;14.78;100.00
72423;BME280;60413;55.658;37.498;2022-09-30T14:57:44;98874.41;;;15.05;100.00
72423;BME280;60413;55.658;37.498;2022-09-30T15:00:20;98839.78;;;14.75;100.00
72423;BME280;60413;55.658;37.498;2022-09-30T15:02:51;98836.09;;;14.66;100.00
72423;BME280;60413;55.658;37.498;2022-09-30T15:05:19;98846.66;;;14.76;100.00
72423;BME280;60413;55.658;37.498;2022-09-30T15:07:49;98870.53;;;14.76;100.00
72423;BME280;60413;55.658;37.498;2022-09-30T15:10:19;98878.50;;;14.76;100.00
72423;BME280;60413;55.658;37.498;2022-09-30T15:12:48;98830.06;;;14.50;100.00
72423;BME280;60413;55.658;37.498;2022-09-30T15:15:31;98854.69;;;14.61;100.00
72423;BME280;60413;55.658;37.498;2022-09-30T15:17:59;98834.06;;;14.37;100.00
72423;BME280;60413;55.658;37.498;2022-09-30T15:20:31;98839.34;;;14.42;100.00
72423;BME280;60413;55.658;37.498;2022-09-30T15:25:52;98870.88;;;14.54;100.00
72423;BME280;60413;55.658;37.498;2022-09-30T15:28:23;98871.16;;;14.42;100.00
72423;BME280;60413;55.658;37.498;2022-09-30T15:30:55;98861.38;;;14.38;100.00
72423;BME280;60413;55.658;37.498;2022-09-30T15:33:28;98839.44;;;14.12;100.00
72423;BME280;60413;55.658;37.498;2022-09-30T15:36:01;98893.44;;;14.36;100.00
72423;BME280;60413;55.658;37.498;2022-09-30T15:38:35;98849.25;;;14.06;100.00
72423;BME280;60413;55.658;37.498;2022-09-30T15:41:09;98876.25;;;14.23;100.00
72423;BME280;60413;55.658;37.498;2022-09-30T15:43:44;98897.97;;;14.25;100.00
72423;BME280;60413;55.658;37.498;2022-09-30T15:46:21;98880.75;;;14.18;100.00
72423;BME280;60413;55.658;37.498;2022-09-30T15:49:02;98935.06;;;14.36;100.00
72423;BME280;60413;55.658;37.498;2022-09-30T15:51:37;98928.97;;;14.40;100.00
72423;BME280;60413;55.658;37.498;2022-09-30T15:56:47;98918.66;;;14.23;100.00
72423;BME280;60413;55.658;37.498;2022-09-30T15:59:13;98878.66;;;13.99;100.00
72423;BME280;60413;55.658;37.498;2022-09-30T16:01:43;98931.38;;;14.21;100.00
72423;BME280;60413;55.658;37.498;2022-09-30T16:07:08;98885.81;;;13.94;100.00
72423;BME280;60413;55.658;37.498;2022-09-30T16:09:40;98911.75;;;14.27;100.00
72423;BME280;60413;55.658;37.498;2022-09-30T16:14:43;98928.47;;;14.18;100.00
72423;BME280;60413;55.658;37.498;2022-09-30T16:17:33;98911.25;;;13.95;100.00
72423;BME280;60413;55.658;37.498;2022-09-30T16:20:21;98911.25;;;14.00;100.00
72423;BME280;60413;55.658;37.498;2022-09-30T16:22:53;98874.44;;;13.67;100.00
72423;BME280;60413;55.658;37.498;2022-09-30T16:25:25;98938.00;;;14.14;100.00
72423;BME280;60413;55.658;37.498;2022-09-30T16:27:57;98952.31;;;14.13;100.00
72423;BME280;60413;55.658;37.498;2022-09-30T16:30:25;98894.31;;;13.80;100.00
72423;BME280;60413;55.658;37.498;2022-09-30T16:32:55;98933.00;;;14.02;100.00
72423;BME280;60413;55.658;37.498;2022-09-30T16:35:25;98902.25;;;13.80;100.00
72423;BME280;60413;55.658;37.498;2022-09-30T16:38:04;98936.16;;;14.04;100.00
72423;BME280;60413;55.658;37.498;2022-09-30T16:40:44;98907.03;;;13.94;100.00
72423;BME280;60413;55.658;37.498;2022-09-30T16:43:10;98918.13;;;13.90;100.00
72423;BME280;60413;55.658;37.498;2022-09-30T16:45:37;98948.63;;;14.14;100.00